createdAt,value
2018-07-14T00:01:29.863Z,99967.63
2018-07-14T00:03:05.436Z,99972.73
2018-07-14T00:04:41.223Z,99968.06
2018-07-14T00:06:16.833Z,99969.39
2018-07-14T00:07:52.396Z,99969.44
2018-07-14T00:09:27.965Z,99974.96
2018-07-14T00:11:03.533Z,99972.69
2018-07-14T00:12:39.144Z,99968.98
2018-07-14T00:14:14.693Z,99969.05
2018-07-14T00:15:50.270Z,99974.35
2018-07-14T00:17:25.846Z,99969.89
2018-07-14T00:19:01.442Z,99971.50
2018-07-14T00:20:37.105Z,99972.88
2018-07-14T00:22:12.698Z,99970.37
2018-07-14T00:23:48.336Z,99963.59
2018-07-14T00:25:29.352Z,99964.86
2018-07-14T00:27:04.956Z,99961.09
2018-07-14T00:28:40.715Z,99961.15
2018-07-14T00:30:16.382Z,99956.47
2018-07-14T00:31:51.958Z,99956.33
2018-07-14T00:33:27.819Z,99965.20
2018-07-14T00:35:03.404Z,99961.63
2018-07-14T00:36:38.938Z,99964.08
2018-07-14T00:38:14.491Z,99966.31
2018-07-14T00:39:50.065Z,99962.69
2018-07-14T00:41:25.653Z,99965.34
2018-07-14T00:43:01.260Z,99965.20
2018-07-14T00:44:36.877Z,99961.79
2018-07-14T00:46:12.478Z,99964.23
2018-07-14T00:47:48.089Z,99960.42
2018-07-14T00:49:23.648Z,99948.78
2018-07-14T00:50:59.190Z,99963.08
2018-07-14T00:52:34.777Z,99967.95
2018-07-14T00:54:10.320Z,99967.59
2018-07-14T00:55:45.929Z,99962.92
2018-07-14T00:57:21.487Z,99966.05
2018-07-14T00:58:57.136Z,99964.63
2018-07-14T01:00:33.020Z,99968.33
2018-07-14T01:02:08.574Z,99961.70
2018-07-14T01:03:44.197Z,99963.66
2018-07-14T01:05:19.779Z,99969.66
2018-07-14T01:06:55.555Z,99965.73
2018-07-14T01:08:31.133Z,99979.19
2018-07-14T01:10:06.755Z,99975.91
2018-07-14T01:11:42.338Z,99971.59
2018-07-14T01:13:18.527Z,99981.98
2018-07-14T01:14:54.151Z,99977.20
2018-07-14T01:16:30.066Z,99976.58
2018-07-14T01:18:05.643Z,99967.88
2018-07-14T01:19:41.250Z,99976.58
2018-07-14T01:21:16.807Z,99977.91
2018-07-14T01:22:52.936Z,99977.87
2018-07-14T01:24:28.527Z,99977.48
2018-07-14T01:26:04.118Z,99979.92
2018-07-14T01:27:39.972Z,99979.80
2018-07-14T01:29:15.796Z,99974.79
2018-07-14T01:30:51.367Z,99973.25
2018-07-14T01:32:27.012Z,99978.48
2018-07-14T01:34:02.578Z,99982.67
2018-07-14T01:35:38.209Z,99982.59
2018-07-14T01:37:13.728Z,99985.17
2018-07-14T01:38:49.307Z,99984.22
2018-07-14T01:40:24.890Z,99983.38
2018-07-14T01:42:00.589Z,99981.90
2018-07-14T01:43:36.454Z,99986.77
2018-07-14T01:45:12.031Z,99980.39
2018-07-14T01:46:47.566Z,99980.69
2018-07-14T01:48:23.118Z,99981.13
2018-07-14T01:49:58.706Z,99981.72
2018-07-14T01:51:34.321Z,99981.17
2018-07-14T01:53:09.866Z,99980.32
2018-07-14T01:54:45.431Z,99979.25
2018-07-14T01:56:21.079Z,99970.13
2018-07-14T01:57:56.677Z,99978.34
2018-07-14T01:59:32.292Z,99981.02
2018-07-14T02:01:07.842Z,99977.89
2018-07-14T02:02:43.415Z,99981.64
2018-07-14T02:04:18.962Z,99976.05
2018-07-14T02:05:54.558Z,99971.30
2018-07-14T02:07:30.115Z,99978.06
2018-07-14T02:09:05.974Z,99974.20
2018-07-14T02:10:41.588Z,99970.34
2018-07-14T02:12:17.184Z,99970.15
2018-07-14T02:13:52.762Z,99978.09
2018-07-14T02:15:28.370Z,99975.45
2018-07-14T02:17:03.975Z,99975.45
2018-07-14T02:18:39.546Z,99971.92
2018-07-14T02:20:15.144Z,99980.34
2018-07-14T02:21:50.907Z,99976.03
2018-07-14T02:23:26.558Z,99980.74
2018-07-14T02:25:02.125Z,99976.37
2018-07-14T02:26:37.818Z,99978.63
2018-07-14T02:28:13.374Z,99980.44
2018-07-14T02:29:49.049Z,99979.13
2018-07-14T02:31:24.620Z,99979.61
2018-07-14T02:33:00.207Z,99983.25
2018-07-14T02:34:35.816Z,99987.98
2018-07-14T02:36:11.582Z,99990.77
2018-07-14T02:37:47.162Z,99987.50
2018-07-14T02:39:22.738Z,99992.97
2018-07-14T02:40:58.331Z,99994.45
2018-07-14T02:42:33.916Z,99995.89
2018-07-14T02:44:09.488Z,99996.51
2018-07-14T02:45:45.092Z,99992.43
2018-07-14T02:47:20.897Z,99992.53
2018-07-14T02:48:56.486Z,99993.00
2018-07-14T02:50:32.080Z,99993.00
2018-07-14T02:52:07.635Z,99992.77
2018-07-14T02:53:43.194Z,99991.21
2018-07-14T02:55:18.895Z,99988.56
2018-07-14T02:56:54.823Z,99988.70
2018-07-14T02:58:30.724Z,99993.25
2018-07-14T03:00:06.287Z,99990.98
2018-07-14T03:01:41.882Z,99995.66
2018-07-14T03:03:17.519Z,100001.95
2018-07-14T03:04:53.096Z,100001.02
2018-07-14T03:06:28.678Z,99998.86
2018-07-14T03:08:04.422Z,100002.59
2018-07-14T03:09:40.018Z,100001.12
2018-07-14T03:11:15.581Z,100001.59
2018-07-14T03:12:51.359Z,100002.72
2018-07-14T03:14:26.948Z,99999.09
2018-07-14T03:16:02.508Z,99924.69
2018-07-14T03:17:38.289Z,100005.94
2018-07-14T03:19:13.925Z,99996.11
2018-07-14T03:20:49.497Z,100003.91
2018-07-14T03:22:25.116Z,100002.34
2018-07-14T03:24:00.720Z,100002.91
2018-07-14T03:25:36.385Z,100000.49
2018-07-14T03:27:11.977Z,100003.52
2018-07-14T03:28:47.617Z,100003.66
2018-07-14T03:30:23.218Z,100005.78
2018-07-14T03:31:58.788Z,100005.31
2018-07-14T03:33:34.395Z,100009.17
2018-07-14T03:35:09.970Z,100008.71
2018-07-14T03:36:45.651Z,100004.23
2018-07-14T03:38:21.387Z,100005.67
2018-07-14T03:39:56.979Z,100002.78
2018-07-14T03:41:32.538Z,100008.78
2018-07-14T03:43:08.164Z,100003.11
2018-07-14T03:44:43.722Z,100004.43
2018-07-14T03:46:19.280Z,100002.86
2018-07-14T03:47:54.849Z,100006.30
2018-07-14T03:49:30.500Z,100004.87
2018-07-14T03:51:06.179Z,100007.99
2018-07-14T03:52:41.792Z,100008.53
2018-07-14T03:54:17.305Z,100015.28
2018-07-14T03:55:53.095Z,100012.09
2018-07-14T03:57:28.650Z,100011.14
2018-07-14T03:59:04.245Z,100018.23
2018-07-14T04:00:40.018Z,100015.56
2018-07-14T04:02:15.694Z,100020.84
2018-07-14T04:03:51.327Z,100015.03
2018-07-14T04:05:26.905Z,100018.90
2018-07-14T04:07:02.521Z,100022.25
2018-07-14T04:08:38.117Z,100011.80
2018-07-14T04:10:13.673Z,100021.07
2018-07-14T04:11:49.265Z,100016.38
2018-07-14T04:13:24.836Z,100021.14
2018-07-14T04:15:00.510Z,100012.31
2018-07-14T04:16:36.430Z,100009.29
2018-07-14T04:18:12.027Z,100012.97
2018-07-14T04:19:47.583Z,100019.84
2018-07-14T04:21:23.146Z,100003.74
2018-07-14T04:22:59.406Z,100010.98
2018-07-14T04:24:35.004Z,100000.81
2018-07-14T04:26:10.615Z,100001.92
2018-07-14T04:27:46.213Z,100000.95
2018-07-14T04:29:21.841Z,99994.45
2018-07-14T04:30:57.447Z,100002.58
2018-07-14T04:32:32.999Z,99999.80
2018-07-14T04:34:08.563Z,100004.30
2018-07-14T04:35:44.155Z,99999.55
2018-07-14T04:37:19.690Z,100004.27
2018-07-14T04:38:55.362Z,99999.31
2018-07-14T04:40:30.926Z,100006.94
2018-07-14T04:42:06.525Z,100004.05
2018-07-14T04:43:42.132Z,100005.94
2018-07-14T04:45:17.675Z,100009.91
2018-07-14T04:46:53.271Z,100013.49
2018-07-14T04:48:28.870Z,100012.15
2018-07-14T04:50:04.417Z,100009.02
2018-07-14T04:51:40.022Z,100010.67
2018-07-14T04:53:15.661Z,100010.91
2018-07-14T04:54:51.199Z,100010.81
2018-07-14T04:56:26.809Z,100006.77
2018-07-14T04:58:02.444Z,100015.27
2018-07-14T04:59:37.995Z,100006.01
2018-07-14T05:01:13.558Z,100009.77
2018-07-14T05:02:49.143Z,100008.14
2018-07-14T05:04:24.738Z,100010.08
2018-07-14T05:06:00.296Z,100017.83
2018-07-14T05:07:36.341Z,100011.27
2018-07-14T05:09:12.117Z,100014.06
2018-07-14T05:10:47.737Z,100011.04
2018-07-14T05:12:23.310Z,100011.35
2018-07-14T05:13:58.925Z,100015.70
2018-07-14T05:15:35.431Z,100005.83
2018-07-14T05:17:11.029Z,100015.47
2018-07-14T05:18:47.339Z,100012.72
2018-07-14T05:20:23.359Z,100010.34
2018-07-14T05:21:59.042Z,100011.93
2018-07-14T05:23:34.635Z,100008.22
2018-07-14T05:25:10.229Z,100008.27
2018-07-14T05:26:45.836Z,100013.23
2018-07-14T05:28:21.441Z,100011.73
2018-07-14T05:29:57.006Z,100014.97
2018-07-14T05:31:32.567Z,100019.47
2018-07-14T05:33:08.230Z,100023.53
2018-07-14T05:34:43.771Z,100019.80
2018-07-14T05:36:19.359Z,100025.68
2018-07-14T05:37:54.957Z,100022.04
2018-07-14T05:39:30.574Z,100023.52
2018-07-14T05:41:06.455Z,100024.85
2018-07-14T05:42:42.058Z,100022.88
2018-07-14T05:44:17.657Z,100020.57
2018-07-14T05:45:53.270Z,100022.13
2018-07-14T05:47:28.854Z,100026.55
2018-07-14T05:49:04.416Z,100025.26
2018-07-14T05:50:40.042Z,100031.92
2018-07-14T05:52:15.947Z,100030.17
2018-07-14T05:53:51.518Z,100036.94
2018-07-14T05:55:27.122Z,100039.11
2018-07-14T05:57:02.753Z,100042.06
2018-07-14T05:58:38.344Z,100033.45
2018-07-14T06:00:13.949Z,100037.48
2018-07-14T06:01:49.529Z,100037.34
2018-07-14T06:03:25.112Z,100036.20
2018-07-14T06:05:00.682Z,100033.48
2018-07-14T06:06:36.250Z,100033.94
2018-07-14T06:08:11.798Z,100038.18
2018-07-14T06:09:50.404Z,100038.35
2018-07-14T06:11:26.548Z,100037.64
2018-07-14T06:13:02.203Z,100038.09
2018-07-14T06:14:38.018Z,100039.75
2018-07-14T06:16:13.810Z,100038.32
2018-07-14T06:17:49.503Z,100036.59
2018-07-14T06:19:25.296Z,100040.09
2018-07-14T06:21:01.119Z,100040.16
2018-07-14T06:22:36.670Z,100039.34
2018-07-14T06:24:12.243Z,100040.00
2018-07-14T06:25:48.133Z,100029.00
2018-07-14T06:27:23.969Z,100031.98
2018-07-14T06:28:59.597Z,100036.06
2018-07-14T06:30:35.234Z,100039.11
2018-07-14T06:32:10.994Z,100034.16
2018-07-14T06:33:46.496Z,100039.79
2018-07-14T06:35:22.057Z,100038.19
2018-07-14T06:36:57.753Z,100040.77
2018-07-14T06:38:33.539Z,100039.49
2018-07-14T06:40:09.050Z,100040.17
2018-07-14T06:41:44.629Z,100036.64
2018-07-14T06:43:20.225Z,100037.27
2018-07-14T06:44:55.802Z,100030.62
2018-07-14T06:46:31.755Z,100034.20
2018-07-14T06:48:07.440Z,100030.87
2018-07-14T06:49:43.202Z,100032.94
2018-07-14T06:51:18.905Z,100036.77
2018-07-14T06:52:54.650Z,100033.24
2018-07-14T06:54:30.289Z,100035.08
2018-07-14T06:56:05.953Z,100039.17
2018-07-14T06:57:42.079Z,100038.59
2018-07-14T06:59:17.997Z,100033.08
2018-07-14T07:00:53.916Z,100035.27
2018-07-14T07:02:29.533Z,100038.68
2018-07-14T07:04:05.227Z,100034.20
2018-07-14T07:05:40.806Z,100034.03
2018-07-14T07:07:16.689Z,100034.24
2018-07-14T07:08:52.323Z,100037.09
2018-07-14T07:10:27.929Z,100033.09
2018-07-14T07:12:03.611Z,100031.53
2018-07-14T07:13:39.168Z,100032.75
2018-07-14T07:15:14.830Z,100032.70
2018-07-14T07:16:50.402Z,100033.70
2018-07-14T07:18:25.955Z,100025.81
2018-07-14T07:20:01.563Z,100024.85
2018-07-14T07:21:37.203Z,100030.86
2018-07-14T07:23:12.792Z,100023.33
2018-07-14T07:24:48.703Z,100025.22
2018-07-14T07:26:24.282Z,100022.59
2018-07-14T07:27:59.941Z,100023.63
2018-07-14T07:29:35.498Z,100019.44
2018-07-14T07:31:11.055Z,100026.29
2018-07-14T07:32:46.606Z,100026.48
2018-07-14T07:34:22.262Z,100025.92
2018-07-14T07:35:57.831Z,100025.81
2018-07-14T07:37:33.480Z,100027.70
2018-07-14T07:39:09.031Z,100022.17
2018-07-14T07:40:45.123Z,100021.68
2018-07-14T07:42:21.073Z,100026.00
2018-07-14T07:43:56.599Z,100029.68
2018-07-14T07:45:32.154Z,100029.39
2018-07-14T07:47:07.753Z,100021.22
2018-07-14T07:48:43.392Z,100026.97
2018-07-14T07:50:18.960Z,100028.00
2018-07-14T07:51:54.536Z,100033.11
2018-07-14T07:53:30.242Z,100021.77
2018-07-14T07:55:06.108Z,100021.16
2018-07-14T07:56:41.695Z,100032.52
2018-07-14T07:58:17.289Z,100026.50
2018-07-14T07:59:52.893Z,100026.48
2018-07-14T08:01:28.494Z,100031.78
2018-07-14T08:03:04.056Z,100021.88
2018-07-14T08:04:39.827Z,100021.98
2018-07-14T08:06:15.401Z,100021.85
2018-07-14T08:07:50.998Z,100020.20
2018-07-14T08:09:26.558Z,100019.53
2018-07-14T08:11:02.128Z,100023.22
2018-07-14T08:12:37.690Z,100019.41
2018-07-14T08:14:13.417Z,100017.53
2018-07-14T08:15:49.043Z,100012.91
2018-07-14T08:17:24.632Z,100018.30
2018-07-14T08:19:00.363Z,100023.31
2018-07-14T08:20:35.916Z,100020.50
2018-07-14T08:22:11.482Z,100013.13
2018-07-14T08:23:47.101Z,100016.29
2018-07-14T08:25:22.681Z,100020.47
2018-07-14T08:26:58.319Z,100025.98
2018-07-14T08:28:33.923Z,100023.31
2018-07-14T08:30:09.655Z,100026.61
2018-07-14T08:31:45.217Z,100021.48
2018-07-14T08:33:20.810Z,100020.86
2018-07-14T08:34:56.550Z,100022.19
2018-07-14T08:36:32.483Z,100025.84
2018-07-14T08:38:08.077Z,100026.69
2018-07-14T08:39:43.654Z,100018.19
2018-07-14T08:41:19.457Z,100019.20
2018-07-14T08:42:55.016Z,100017.72
2018-07-14T08:44:30.571Z,100016.56
2018-07-14T08:46:06.376Z,100023.41
2018-07-14T08:47:41.933Z,100012.52
2018-07-14T08:49:17.520Z,100011.88
2018-07-14T08:50:53.784Z,100006.96
2018-07-14T08:52:29.423Z,100017.47
2018-07-14T08:54:05.005Z,100009.13
2018-07-14T08:55:40.539Z,100007.47
2018-07-14T08:57:16.154Z,100006.13
2018-07-14T08:58:51.826Z,100007.80
2018-07-14T09:00:27.377Z,99999.80
2018-07-14T09:02:02.930Z,100003.63
2018-07-14T09:03:38.543Z,100006.14
2018-07-14T09:05:14.078Z,100007.63
2018-07-14T09:06:49.663Z,100006.28
2018-07-14T09:08:25.792Z,100003.27
2018-07-14T09:10:02.631Z,100004.14
2018-07-14T09:11:38.233Z,100003.97
2018-07-14T09:13:14.078Z,100004.47
2018-07-14T09:14:49.896Z,100005.80
2018-07-14T09:16:25.547Z,99999.63
2018-07-14T09:18:01.721Z,100001.30
2018-07-14T09:21:19.373Z,99995.45
2018-07-14T09:22:54.971Z,99993.78
2018-07-14T09:24:30.769Z,99993.27
2018-07-14T09:26:06.746Z,99991.27
2018-07-14T09:27:42.855Z,99985.41
2018-07-14T09:29:19.466Z,99986.23
2018-07-14T09:30:55.911Z,99998.94
2018-07-14T09:32:31.606Z,100000.98
2018-07-14T09:34:07.189Z,99995.61
2018-07-14T09:35:43.059Z,99989.74
2018-07-14T09:37:18.656Z,99995.25
2018-07-14T09:38:54.340Z,99982.58
2018-07-14T09:40:29.976Z,99997.58
2018-07-14T09:42:05.598Z,99996.91
2018-07-14T09:43:41.363Z,99989.39
2018-07-14T09:45:17.454Z,100001.77
2018-07-14T09:46:53.012Z,99983.23
2018-07-14T09:48:28.745Z,99991.41
2018-07-14T09:50:06.079Z,99997.58
2018-07-14T09:51:45.409Z,99992.91
2018-07-14T09:53:21.485Z,99999.23
2018-07-14T09:54:57.294Z,99983.19
2018-07-14T09:56:32.830Z,99993.19
2018-07-14T09:58:08.377Z,99989.85
2018-07-14T09:59:43.955Z,99975.63
2018-07-14T10:01:19.544Z,99976.31
2018-07-14T10:02:55.082Z,99970.76
2018-07-14T10:04:30.623Z,99991.14
2018-07-14T10:06:06.273Z,99977.13
2018-07-14T10:07:41.779Z,99985.81
2018-07-14T10:09:17.363Z,99977.49
2018-07-14T10:10:52.922Z,99973.41
2018-07-14T10:12:28.617Z,99968.18
2018-07-14T10:14:04.167Z,99964.13
2018-07-14T10:15:39.739Z,99973.34
2018-07-14T10:17:15.309Z,99983.56
2018-07-14T10:18:51.107Z,99927.48
2018-07-14T10:20:26.689Z,99971.88
2018-07-14T10:22:02.297Z,99963.33
2018-07-14T10:23:37.842Z,99963.29
2018-07-14T10:25:13.452Z,99960.42
2018-07-14T10:26:48.906Z,99954.91
2018-07-14T10:28:24.469Z,99957.74
2018-07-14T10:30:00.053Z,99953.69
2018-07-14T10:31:35.767Z,99949.78
2018-07-14T10:33:11.376Z,99957.48
2018-07-14T10:34:46.958Z,99946.80
2018-07-14T10:36:22.543Z,99941.64
2018-07-14T10:37:58.091Z,99941.33
2018-07-14T10:39:33.778Z,99942.83
2018-07-14T10:41:09.351Z,99942.94
2018-07-14T10:42:44.930Z,99940.06
2018-07-14T10:44:20.764Z,99948.02
2018-07-14T10:45:56.307Z,99943.04
2018-07-14T10:47:31.871Z,99950.50
2018-07-14T10:49:07.468Z,99943.64
2018-07-14T10:50:43.011Z,99945.20
2018-07-14T10:52:18.542Z,99945.59
2018-07-14T10:53:54.112Z,99948.61
2018-07-14T10:55:29.696Z,99943.99
2018-07-14T10:57:05.402Z,99942.91
2018-07-14T10:58:41.777Z,99944.64
2018-07-14T11:00:17.317Z,99934.91
2018-07-14T11:01:53.017Z,99938.39
2018-07-14T11:03:28.562Z,99937.60
2018-07-14T11:05:04.450Z,99924.88
2018-07-14T11:06:39.988Z,99928.81
2018-07-14T11:08:15.560Z,99929.39
2018-07-14T11:09:51.111Z,99935.97
2018-07-14T11:11:26.675Z,99935.21
2018-07-14T11:13:02.225Z,99930.00
2018-07-14T11:14:37.818Z,99937.04
2018-07-14T11:16:13.423Z,99938.36
2018-07-14T11:17:49.026Z,99927.31
2018-07-14T11:19:24.579Z,99934.18
2018-07-14T11:21:00.187Z,99932.52
2018-07-14T11:22:35.756Z,99931.36
2018-07-14T11:24:11.331Z,99928.67
2018-07-14T11:25:46.878Z,99926.99
2018-07-14T11:27:22.419Z,99923.62
2018-07-14T11:28:58.044Z,99924.47
2018-07-14T11:30:33.587Z,99914.38
2018-07-14T11:32:09.150Z,99911.27
2018-07-14T11:33:44.737Z,99914.62
2018-07-14T11:35:20.336Z,99917.92
2018-07-14T11:36:56.305Z,99906.47
2018-07-14T11:38:31.855Z,99910.37
2018-07-14T11:40:07.411Z,99913.95
2018-07-14T11:41:42.988Z,99904.63
2018-07-14T11:43:18.526Z,99907.98
2018-07-14T11:44:54.117Z,99914.45
2018-07-14T11:46:29.841Z,99918.14
2018-07-14T11:48:05.425Z,99905.85
2018-07-14T11:49:41.017Z,99907.89
2018-07-14T11:51:16.571Z,99898.03
2018-07-14T11:52:52.476Z,99899.64
2018-07-14T11:54:28.843Z,99888.60
2018-07-14T11:56:04.405Z,99889.88
2018-07-14T11:57:40.010Z,99888.81
2018-07-14T11:59:15.557Z,99897.73
2018-07-14T12:00:51.136Z,99897.94
2018-07-14T12:02:26.733Z,99897.80
2018-07-14T12:04:02.317Z,99890.37
2018-07-14T12:05:37.854Z,99883.27
2018-07-14T12:07:13.428Z,99871.11
2018-07-14T12:08:48.972Z,99876.95
2018-07-14T12:10:24.511Z,99882.23
2018-07-14T12:12:00.102Z,99873.95
2018-07-14T12:13:35.680Z,99868.94
2018-07-14T12:15:11.499Z,99858.45
2018-07-14T12:16:47.065Z,99863.58
2018-07-14T12:18:22.610Z,99858.78
2018-07-14T12:19:58.221Z,99870.80
2018-07-14T12:21:33.777Z,99863.65
2018-07-14T12:23:09.314Z,99851.56
2018-07-14T12:24:44.856Z,99857.78
2018-07-14T12:26:20.441Z,99850.30
2018-07-14T12:27:56.004Z,99855.30
2018-07-14T12:29:31.579Z,99851.91
2018-07-14T12:31:07.133Z,99848.44
2018-07-14T12:32:42.701Z,99859.19
2018-07-14T12:34:18.319Z,99857.23
2018-07-14T12:35:53.859Z,99844.15
2018-07-14T12:37:29.682Z,99848.70
2018-07-14T12:39:05.666Z,99839.62
2018-07-14T12:40:41.243Z,99841.30
2018-07-14T12:42:16.841Z,99837.41
2018-07-14T12:43:52.382Z,99834.14
2018-07-14T12:45:27.956Z,99842.02
2018-07-14T12:47:03.511Z,99834.23
2018-07-14T12:48:39.102Z,99837.89
2018-07-14T12:50:14.806Z,99832.39
2018-07-14T12:51:50.358Z,99835.20
2018-07-14T12:53:25.948Z,99836.62
2018-07-14T12:55:01.539Z,99831.34
2018-07-14T12:56:37.076Z,99823.02
2018-07-14T12:58:12.614Z,99823.53
2018-07-14T12:59:48.210Z,99830.04
2018-07-14T13:01:23.772Z,99823.70
2018-07-14T13:02:59.625Z,99826.52
2018-07-14T13:04:35.470Z,99818.58
2018-07-14T13:06:11.066Z,99818.95
2018-07-14T13:07:46.889Z,99816.90
2018-07-14T13:09:22.510Z,99823.19
2018-07-14T13:10:58.062Z,99814.88
2018-07-14T13:12:33.641Z,99811.47
2018-07-14T13:14:09.243Z,99804.37
2018-07-14T13:15:44.808Z,99806.02
2018-07-14T13:17:20.387Z,99817.22
2018-07-14T13:18:55.952Z,99814.88
2018-07-14T13:20:31.511Z,99808.31
2018-07-14T13:22:07.063Z,99803.33
2018-07-14T13:23:42.647Z,99801.47
2018-07-14T13:25:18.504Z,99796.86
2018-07-14T13:26:54.059Z,99795.17
2018-07-14T13:28:29.623Z,99799.06
2018-07-14T13:30:05.459Z,99793.90
2018-07-14T13:31:41.030Z,99791.33
2018-07-14T13:33:16.574Z,99795.99
2018-07-14T13:34:52.118Z,99793.52
2018-07-14T13:36:27.731Z,99784.22
2018-07-14T13:38:03.255Z,99782.67
2018-07-14T13:39:38.976Z,99786.67
2018-07-14T13:41:14.813Z,99788.14
2018-07-14T13:42:50.383Z,99782.44
2018-07-14T13:44:26.243Z,99786.08
2018-07-14T13:46:01.809Z,99789.60
2018-07-14T13:47:37.350Z,99781.45
2018-07-14T13:49:12.957Z,99776.55
2018-07-14T13:50:48.658Z,99788.63
2018-07-14T13:52:24.405Z,99779.63
2018-07-14T13:53:59.956Z,99777.27
2018-07-14T13:55:35.517Z,99770.00
2018-07-14T13:57:11.108Z,99769.22
2018-07-14T13:58:47.035Z,99765.28
2018-07-14T14:00:22.590Z,99762.49
2018-07-14T14:01:58.142Z,99759.70
2018-07-14T14:03:33.741Z,99758.30
2018-07-14T14:05:09.271Z,99748.39
2018-07-14T14:06:44.833Z,99751.21
2018-07-14T14:08:20.373Z,99751.31
2018-07-14T14:09:55.935Z,99747.60
2018-07-14T14:11:31.514Z,99753.34
2018-07-14T14:13:07.199Z,99756.05
2018-07-14T14:14:42.775Z,99753.56
2018-07-14T14:16:18.350Z,99743.41
2018-07-14T14:17:54.101Z,99743.32
2018-07-14T14:19:29.647Z,99746.58
2018-07-14T14:21:05.210Z,99744.25
2018-07-14T14:22:40.782Z,99743.64
2018-07-14T14:24:16.354Z,99741.22
2018-07-14T14:25:51.957Z,99747.98
2018-07-14T14:27:27.626Z,99744.27
2018-07-14T14:29:03.183Z,99738.89
2018-07-14T14:30:39.013Z,99744.89
2018-07-14T14:32:14.800Z,99737.34
2018-07-14T14:33:50.359Z,99733.73
2018-07-14T14:35:25.926Z,99735.84
2018-07-14T14:37:01.666Z,99732.45
2018-07-14T14:38:37.210Z,99734.37
2018-07-14T14:40:12.766Z,99735.49
2018-07-14T14:41:48.357Z,99733.45
2018-07-14T14:43:23.945Z,99729.00
2018-07-14T14:44:59.486Z,99730.05
2018-07-14T14:46:35.043Z,99721.14
2018-07-14T14:48:10.623Z,99718.95
2018-07-14T14:49:46.169Z,99719.89
2018-07-14T14:51:21.719Z,99716.09
2018-07-14T14:52:57.678Z,99713.30
2018-07-14T14:54:33.240Z,99709.98
2018-07-14T14:56:08.822Z,99712.34
2018-07-14T14:57:44.341Z,99712.69
2018-07-14T14:59:19.919Z,99713.41
2018-07-14T15:00:55.469Z,99711.44
2018-07-14T15:02:31.033Z,99708.12
2018-07-14T15:04:06.634Z,99707.57
2018-07-14T15:05:42.247Z,99705.22
2018-07-14T15:07:17.784Z,99703.27
2018-07-14T15:08:53.429Z,99696.47
2018-07-14T15:10:28.978Z,99700.84
2018-07-14T15:12:04.791Z,99696.70
2018-07-14T15:13:40.373Z,99693.46
2018-07-14T15:15:16.200Z,99696.08
2018-07-14T15:16:51.788Z,99689.58
2018-07-14T15:18:27.357Z,99682.23
2018-07-14T15:20:02.924Z,99689.36
2018-07-14T15:21:38.494Z,99694.01
2018-07-14T15:23:14.074Z,99688.41
2018-07-14T15:24:49.619Z,99695.47
2018-07-14T15:26:25.488Z,99688.63
2018-07-14T15:28:01.042Z,99689.64
2018-07-14T15:29:36.615Z,99686.84
2018-07-14T15:31:12.157Z,99680.34
2018-07-14T15:32:47.751Z,99680.05
2018-07-14T15:34:23.287Z,99685.43
2018-07-14T15:35:59.003Z,99680.05
2018-07-14T15:37:34.572Z,99679.14
2018-07-14T15:39:10.485Z,99677.90
2018-07-14T15:40:46.046Z,99682.88
2018-07-14T15:42:21.661Z,99679.97
2018-07-14T15:43:57.203Z,99677.75
2018-07-14T15:45:32.763Z,99676.11
2018-07-14T15:47:08.303Z,99676.00
2018-07-14T15:48:43.874Z,99670.11
2018-07-14T15:50:19.438Z,99669.50
2018-07-14T15:51:55.049Z,99675.68
2018-07-14T15:53:30.602Z,99669.23
2018-07-14T15:55:06.309Z,99671.47
2018-07-14T15:56:41.875Z,99670.63
2018-07-14T15:58:17.454Z,99673.77
2018-07-14T15:59:53.027Z,99664.58
2018-07-14T16:01:28.609Z,99661.59
2018-07-14T16:03:04.173Z,99666.37
2018-07-14T16:04:39.992Z,99666.80
2018-07-14T16:06:15.535Z,99659.92
2018-07-14T16:07:51.144Z,99668.19
2018-07-14T16:09:26.954Z,99666.86
2018-07-14T16:11:02.593Z,99662.54
2018-07-14T16:12:38.152Z,99668.44
2018-07-14T16:14:13.706Z,99657.57
2018-07-14T16:15:49.268Z,99662.66
2018-07-14T16:17:24.855Z,99656.43
2018-07-14T16:19:00.436Z,99657.34
2018-07-14T16:20:35.969Z,99650.44
2018-07-14T16:22:11.528Z,99655.09
2018-07-14T16:23:47.116Z,99656.75
2018-07-14T16:25:22.676Z,99656.94
2018-07-14T16:26:58.342Z,99651.45
2018-07-14T16:28:34.109Z,99654.37
2018-07-14T16:30:09.812Z,99654.98
2018-07-14T16:31:45.363Z,99650.42
2018-07-14T16:33:20.914Z,99657.45
2018-07-14T16:34:56.706Z,99652.27
2018-07-14T16:36:32.260Z,99649.98
2018-07-14T16:38:07.857Z,99655.98
2018-07-14T16:39:43.411Z,99658.37
2018-07-14T16:41:18.991Z,99655.35
2018-07-14T16:42:54.542Z,99650.47
2018-07-14T16:44:30.101Z,99653.81
2018-07-14T16:46:05.700Z,99650.89
2018-07-14T16:47:41.287Z,99648.39
2018-07-14T16:49:16.854Z,99649.73
2018-07-14T16:50:52.425Z,99651.50
2018-07-14T16:52:27.982Z,99650.50
2018-07-14T16:54:03.560Z,99654.68
2018-07-14T16:55:39.165Z,99650.64
2018-07-14T16:57:15.096Z,99656.83
2018-07-14T16:58:51.176Z,99657.46
2018-07-14T17:00:26.753Z,99653.93
2018-07-14T17:02:02.283Z,99650.71
2018-07-14T17:03:37.861Z,99647.11
2018-07-14T17:05:13.451Z,99644.63
2018-07-14T17:06:49.013Z,99644.41
2018-07-14T17:08:24.579Z,99650.41
2018-07-14T17:10:00.224Z,99650.03
2018-07-14T17:11:35.810Z,99652.61
2018-07-14T17:13:11.474Z,99649.16
2018-07-14T17:14:47.061Z,99654.83
2018-07-14T17:16:22.621Z,99643.55
2018-07-14T17:17:58.217Z,99646.94
2018-07-14T17:19:33.763Z,99645.36
2018-07-14T17:21:09.360Z,99642.77
2018-07-14T17:22:44.939Z,99649.78
2018-07-14T17:24:20.490Z,99656.22
2018-07-14T17:25:56.068Z,99658.97
2018-07-14T17:27:31.627Z,99651.04
2018-07-14T17:29:07.210Z,99647.22
2018-07-14T17:30:43.070Z,99651.14
2018-07-14T17:32:18.759Z,99646.66
2018-07-14T17:33:54.581Z,99645.53
2018-07-14T17:35:30.222Z,99647.47
2018-07-14T17:37:06.136Z,99643.93
2018-07-14T17:38:41.707Z,99638.62
2018-07-14T17:40:17.296Z,99645.45
2018-07-14T17:41:52.854Z,99638.32
2018-07-14T17:43:28.651Z,99641.63
2018-07-14T17:45:04.553Z,99641.73
2018-07-14T17:46:40.126Z,99642.53
2018-07-14T17:48:15.711Z,99641.28
2018-07-14T17:49:51.484Z,99644.36
2018-07-14T17:51:27.047Z,99640.21
2018-07-14T17:53:02.651Z,99642.69
2018-07-14T17:54:38.470Z,99649.23
2018-07-14T17:56:14.044Z,99651.05
2018-07-14T17:57:49.601Z,99653.97
2018-07-14T17:59:25.154Z,99648.06
2018-07-14T18:01:00.744Z,99650.13
2018-07-14T18:02:36.545Z,99656.01
2018-07-14T18:04:12.075Z,99658.45
2018-07-14T18:05:47.626Z,99653.73
2018-07-14T18:07:23.218Z,99656.66
2018-07-14T18:08:59.019Z,99656.72
2018-07-14T18:10:34.560Z,99648.29
2018-07-14T18:12:10.122Z,99648.50
2018-07-14T18:13:45.755Z,99658.41
2018-07-14T18:15:21.299Z,99651.81
2018-07-14T18:16:56.909Z,99651.09
2018-07-14T18:18:32.479Z,99652.44
2018-07-14T18:20:08.020Z,99652.91
2018-07-14T18:21:43.607Z,99651.53
2018-07-14T18:23:19.147Z,99651.66
2018-07-14T18:24:54.705Z,99650.66
2018-07-14T18:26:30.255Z,99647.59
2018-07-14T18:28:05.847Z,99651.37
2018-07-14T18:29:41.478Z,99653.09
2018-07-14T18:31:17.186Z,99642.66
2018-07-14T18:32:52.753Z,99649.53
2018-07-14T18:34:28.370Z,99652.92